首页
METAR-TAF:

METAR-TAF

机场 :

贝伦, 帕拉, 巴西

纬度: 01-23S, 经度: 048-29W, 海拔: 16米

当前天气观测

该预报发布于14分钟前的13:00 UTC
风速8节,风向东转东北
温度 29°C
湿度 70%
气压 1012 hPa
能见度10公里或以上
散云层高于1800英尺

METAR: SBBE 171300Z 07008KT 9999 SCT018 29/23 Q1012

时间: 10:14 (13:14 UTC)

预报

该预报发布于3小时和14分钟前的10:00 UTC
预报有效从17日的 12点(UTC)到 18日的 12点(UTC)
风速8节,风向东转东南
能见度10公里或以上
少量云层高于1500英尺
成为
从 17日的 13点(UTC)到 17日的 15点(UTC)
风速10节,风向
多云层高于2500英尺
成为
从 17日的 16点(UTC)到 17日的 18点(UTC)
风速5节,风向东转东北
多云层高于2500英尺
少量云层高于4000英尺, 塔状积云.
少量云层高于3000英尺

TAF: SBBE 171000Z 1712/1812 11008KT 9999 FEW015 TX32/1716Z TN24/1806Z BECMG 1713/1715 09010KT BKN025 BECMG 1716/1718 03010KT BKN025 FEW040TCU BE CMG 1722/1724 06005KT FEW030 RMK PEN

超过4000个机场的气象观测和天气预报(METAR&TAF报告)。

可查询的气象台以黄色和红色小点在地图上表示。

将鼠标移到小点上方,可查看气象台名称。

然后点击查看天气观测和预报。

如需切换地图:点击带黑十字的绿色按钮放大地图;点击带横线的绿色按钮缩小地图;或者点击绿色箭头查看邻近地区的地图。


METAR-TAF: